sensor_id;sensor_type;location;lat;lon;timestamp;temperature;humidity
44851;DHT22;30583;48.714;9.386;2024-02-26T00:00:34;9.20;58.30
44851;DHT22;30583;48.714;9.386;2024-02-26T00:03:00;9.20;58.70
44851;DHT22;30583;48.714;9.386;2024-02-26T00:05:26;9.50;58.00
44851;DHT22;30583;48.714;9.386;2024-02-26T00:07:52;9.70;57.30
44851;DHT22;30583;48.714;9.386;2024-02-26T00:10:17;9.60;57.10
44851;DHT22;30583;48.714;9.386;2024-02-26T00:12:43;9.30;57.70
44851;DHT22;30583;48.714;9.386;2024-02-26T00:15:10;9.20;58.30
44851;DHT22;30583;48.714;9.386;2024-02-26T00:17:36;9.40;57.90
44851;DHT22;30583;48.714;9.386;2024-02-26T00:20:03;9.50;57.40
44851;DHT22;30583;48.714;9.386;2024-02-26T00:22:35;9.80;56.70
44851;DHT22;30583;48.714;9.386;2024-02-26T00:25:01;10.00;56.80
44851;DHT22;30583;48.714;9.386;2024-02-26T00:27:26;9.90;56.70
44851;DHT22;30583;48.714;9.386;2024-02-26T00:29:52;9.90;56.70
44851;DHT22;30583;48.714;9.386;2024-02-26T00:32:17;9.90;57.20
44851;DHT22;30583;48.714;9.386;2024-02-26T00:34:43;10.20;56.40
44851;DHT22;30583;48.714;9.386;2024-02-26T00:37:09;10.00;56.60
44851;DHT22;30583;48.714;9.386;2024-02-26T00:39:35;10.00;56.90
44851;DHT22;30583;48.714;9.386;2024-02-26T00:42:00;10.10;56.70
44851;DHT22;30583;48.714;9.386;2024-02-26T00:44:26;9.80;56.80
44851;DHT22;30583;48.714;9.386;2024-02-26T00:46:52;9.50;57.90
44851;DHT22;30583;48.714;9.386;2024-02-26T00:49:17;9.90;57.30
44851;DHT22;30583;48.714;9.386;2024-02-26T00:51:43;9.80;57.00
44851;DHT22;30583;48.714;9.386;2024-02-26T00:54:08;9.60;57.70
44851;DHT22;30583;48.714;9.386;2024-02-26T00:56:34;9.40;57.80
44851;DHT22;30583;48.714;9.386;2024-02-26T00:58:59;9.60;57.70
44851;DHT22;30583;48.714;9.386;2024-02-26T01:01:25;9.30;57.80
44851;DHT22;30583;48.714;9.386;2024-02-26T01:03:50;9.40;58.00
44851;DHT22;30583;48.714;9.386;2024-02-26T01:06:16;9.70;57.60
44851;DHT22;30583;48.714;9.386;2024-02-26T01:08:42;9.80;56.80
44851;DHT22;30583;48.714;9.386;2024-02-26T01:11:07;9.40;58.00
44851;DHT22;30583;48.714;9.386;2024-02-26T01:13:33;9.50;57.70
44851;DHT22;30583;48.714;9.386;2024-02-26T01:15:59;9.60;57.80
44851;DHT22;30583;48.714;9.386;2024-02-26T01:18:26;9.80;57.20
44851;DHT22;30583;48.714;9.386;2024-02-26T01:20:51;9.40;57.60
44851;DHT22;30583;48.714;9.386;2024-02-26T01:23:19;9.50;57.20
44851;DHT22;30583;48.714;9.386;2024-02-26T01:25:45;9.90;56.70
44851;DHT22;30583;48.714;9.386;2024-02-26T01:28:11;9.80;56.80
44851;DHT22;30583;48.714;9.386;2024-02-26T01:30:36;9.70;56.90
44851;DHT22;30583;48.714;9.386;2024-02-26T01:33:02;9.20;57.80
44851;DHT22;30583;48.714;9.386;2024-02-26T01:35:29;9.50;57.60
44851;DHT22;30583;48.714;9.386;2024-02-26T01:37:54;9.70;57.10
44851;DHT22;30583;48.714;9.386;2024-02-26T01:40:20;9.70;56.80
44851;DHT22;30583;48.714;9.386;2024-02-26T01:42:45;9.60;57.20
44851;DHT22;30583;48.714;9.386;2024-02-26T01:45:15;9.90;56.00
44851;DHT22;30583;48.714;9.386;2024-02-26T01:47:48;9.80;56.10
44851;DHT22;30583;48.714;9.386;2024-02-26T01:50:15;9.80;55.90
44851;DHT22;30583;48.714;9.386;2024-02-26T01:52:40;10.00;55.50
44851;DHT22;30583;48.714;9.386;2024-02-26T01:55:07;9.90;55.20
44851;DHT22;30583;48.714;9.386;2024-02-26T01:57:33;10.00;55.10
44851;DHT22;30583;48.714;9.386;2024-02-26T01:59:59;10.00;55.50
44851;DHT22;30583;48.714;9.386;2024-02-26T02:02:25;10.00;55.30
44851;DHT22;30583;48.714;9.386;2024-02-26T02:04:51;10.00;55.00
44851;DHT22;30583;48.714;9.386;2024-02-26T02:07:18;10.00;55.50
44851;DHT22;30583;48.714;9.386;2024-02-26T02:09:44;10.00;55.40
44851;DHT22;30583;48.714;9.386;2024-02-26T02:12:11;10.00;55.40
44851;DHT22;30583;48.714;9.386;2024-02-26T02:14:36;9.90;55.50
44851;DHT22;30583;48.714;9.386;2024-02-26T02:17:02;9.80;56.20
44851;DHT22;30583;48.714;9.386;2024-02-26T02:19:27;9.70;56.40
44851;DHT22;30583;48.714;9.386;2024-02-26T02:21:53;10.00;56.00
44851;DHT22;30583;48.714;9.386;2024-02-26T02:24:18;9.70;56.20
44851;DHT22;30583;48.714;9.386;2024-02-26T02:26:44;9.40;57.60
44851;DHT22;30583;48.714;9.386;2024-02-26T02:29:10;9.70;56.70
44851;DHT22;30583;48.714;9.386;2024-02-26T02:31:36;9.70;57.30
44851;DHT22;30583;48.714;9.386;2024-02-26T02:34:02;9.90;56.90
44851;DHT22;30583;48.714;9.386;2024-02-26T02:36:28;9.90;57.10
44851;DHT22;30583;48.714;9.386;2024-02-26T02:38:54;10.00;56.80
44851;DHT22;30583;48.714;9.386;2024-02-26T02:41:19;9.70;58.30
44851;DHT22;30583;48.714;9.386;2024-02-26T02:43:45;9.70;58.50
44851;DHT22;30583;48.714;9.386;2024-02-26T02:46:11;9.70;59.00
44851;DHT22;30583;48.714;9.386;2024-02-26T02:48:37;9.50;59.40
44851;DHT22;30583;48.714;9.386;2024-02-26T02:51:03;9.20;60.10
44851;DHT22;30583;48.714;9.386;2024-02-26T02:53:29;9.10;59.70
44851;DHT22;30583;48.714;9.386;2024-02-26T02:55:54;8.90;60.70
44851;DHT22;30583;48.714;9.386;2024-02-26T02:58:20;8.90;60.80
44851;DHT22;30583;48.714;9.386;2024-02-26T03:00:45;9.30;60.00
44851;DHT22;30583;48.714;9.386;2024-02-26T03:03:11;9.50;58.80
44851;DHT22;30583;48.714;9.386;2024-02-26T03:05:37;9.10;59.90
44851;DHT22;30583;48.714;9.386;2024-02-26T03:08:02;9.20;59.90
44851;DHT22;30583;48.714;9.386;2024-02-26T03:10:28;9.60;58.50
44851;DHT22;30583;48.714;9.386;2024-02-26T03:12:54;9.60;58.50
44851;DHT22;30583;48.714;9.386;2024-02-26T03:15:19;9.60;58.50
44851;DHT22;30583;48.714;9.386;2024-02-26T03:17:45;9.40;58.90
44851;DHT22;30583;48.714;9.386;2024-02-26T03:20:11;9.60;58.50
44851;DHT22;30583;48.714;9.386;2024-02-26T03:22:38;9.70;58.20
44851;DHT22;30583;48.714;9.386;2024-02-26T03:25:04;9.90;57.60
44851;DHT22;30583;48.714;9.386;2024-02-26T03:27:30;9.80;58.00
44851;DHT22;30583;48.714;9.386;2024-02-26T03:29:56;9.70;58.30
44851;DHT22;30583;48.714;9.386;2024-02-26T03:32:22;9.70;58.80
44851;DHT22;30583;48.714;9.386;2024-02-26T03:34:47;9.70;58.60
44851;DHT22;30583;48.714;9.386;2024-02-26T03:37:13;9.70;58.40
44851;DHT22;30583;48.714;9.386;2024-02-26T03:39:39;9.70;58.90
44851;DHT22;30583;48.714;9.386;2024-02-26T03:42:04;9.70;58.50
44851;DHT22;30583;48.714;9.386;2024-02-26T03:44:30;9.40;59.10
44851;DHT22;30583;48.714;9.386;2024-02-26T03:46:55;9.20;59.70
44851;DHT22;30583;48.714;9.386;2024-02-26T03:49:21;9.10;60.20
44851;DHT22;30583;48.714;9.386;2024-02-26T03:51:48;9.00;61.10
44851;DHT22;30583;48.714;9.386;2024-02-26T03:54:13;9.30;60.30
44851;DHT22;30583;48.714;9.386;2024-02-26T03:56:39;9.40;59.90
44851;DHT22;30583;48.714;9.386;2024-02-26T03:59:05;8.90;61.00
44851;DHT22;30583;48.714;9.386;2024-02-26T04:01:30;8.70;62.10
44851;DHT22;30583;48.714;9.386;2024-02-26T04:03:56;8.90;61.30
44851;DHT22;30583;48.714;9.386;2024-02-26T04:06:21;8.90;62.10
44851;DHT22;30583;48.714;9.386;2024-02-26T04:08:48;9.00;62.20
44851;DHT22;30583;48.714;9.386;2024-02-26T04:11:14;9.30;61.80
44851;DHT22;30583;48.714;9.386;2024-02-26T04:13:43;9.60;60.80
44851;DHT22;30583;48.714;9.386;2024-02-26T04:16:11;9.20;61.20
44851;DHT22;30583;48.714;9.386;2024-02-26T04:18:37;8.60;61.90
44851;DHT22;30583;48.714;9.386;2024-02-26T04:21:04;8.20;63.90
44851;DHT22;30583;48.714;9.386;2024-02-26T04:23:30;8.00;64.30
44851;DHT22;30583;48.714;9.386;2024-02-26T04:25:56;8.10;64.30
44851;DHT22;30583;48.714;9.386;2024-02-26T04:28:21;8.70;62.50
44851;DHT22;30583;48.714;9.386;2024-02-26T04:30:47;8.50;61.80
44851;DHT22;30583;48.714;9.386;2024-02-26T04:33:14;8.20;63.00
44851;DHT22;30583;48.714;9.386;2024-02-26T04:35:39;8.30;62.60
44851;DHT22;30583;48.714;9.386;2024-02-26T04:38:05;8.20;62.20
44851;DHT22;30583;48.714;9.386;2024-02-26T04:40:30;8.30;61.90
44851;DHT22;30583;48.714;9.386;2024-02-26T04:42:56;8.60;61.00
44851;DHT22;30583;48.714;9.386;2024-02-26T04:45:22;8.70;60.00
44851;DHT22;30583;48.714;9.386;2024-02-26T04:47:48;8.60;60.10
44851;DHT22;30583;48.714;9.386;2024-02-26T04:50:13;8.50;61.40
44851;DHT22;30583;48.714;9.386;2024-02-26T04:52:39;8.30;62.00
44851;DHT22;30583;48.714;9.386;2024-02-26T04:55:05;8.10;63.10
44851;DHT22;30583;48.714;9.386;2024-02-26T04:57:31;8.10;62.80
44851;DHT22;30583;48.714;9.386;2024-02-26T04:59:56;8.40;61.80
44851;DHT22;30583;48.714;9.386;2024-02-26T05:02:22;8.20;62.20
44851;DHT22;30583;48.714;9.386;2024-02-26T05:04:47;8.10;62.50
44851;DHT22;30583;48.714;9.386;2024-02-26T05:07:13;8.10;62.90
44851;DHT22;30583;48.714;9.386;2024-02-26T05:09:39;8.20;63.00
44851;DHT22;30583;48.714;9.386;2024-02-26T05:12:05;8.30;62.60
44851;DHT22;30583;48.714;9.386;2024-02-26T05:14:31;8.50;62.00
44851;DHT22;30583;48.714;9.386;2024-02-26T05:16:56;8.00;63.30
44851;DHT22;30583;48.714;9.386;2024-02-26T05:19:28;8.10;63.30
44851;DHT22;30583;48.714;9.386;2024-02-26T05:21:56;8.00;63.60
44851;DHT22;30583;48.714;9.386;2024-02-26T05:24:22;8.30;63.20
44851;DHT22;30583;48.714;9.386;2024-02-26T05:26:48;8.20;63.20
44851;DHT22;30583;48.714;9.386;2024-02-26T05:29:13;8.40;62.50
44851;DHT22;30583;48.714;9.386;2024-02-26T05:31:41;8.20;62.70
44851;DHT22;30583;48.714;9.386;2024-02-26T05:34:07;8.60;62.30
44851;DHT22;30583;48.714;9.386;2024-02-26T05:36:32;9.40;60.00
44851;DHT22;30583;48.714;9.386;2024-02-26T05:38:59;9.50;59.20
44851;DHT22;30583;48.714;9.386;2024-02-26T05:41:25;9.70;59.10
44851;DHT22;30583;48.714;9.386;2024-02-26T05:43:52;9.80;58.90
44851;DHT22;30583;48.714;9.386;2024-02-26T05:46:19;9.70;58.90
44851;DHT22;30583;48.714;9.386;2024-02-26T05:48:47;9.50;59.40
44851;DHT22;30583;48.714;9.386;2024-02-26T05:51:13;9.30;60.20
44851;DHT22;30583;48.714;9.386;2024-02-26T05:53:38;9.50;59.40
44851;DHT22;30583;48.714;9.386;2024-02-26T05:56:04;9.60;59.80
44851;DHT22;30583;48.714;9.386;2024-02-26T05:58:29;9.70;60.20
44851;DHT22;30583;48.714;9.386;2024-02-26T06:00:55;9.70;60.00
44851;DHT22;30583;48.714;9.386;2024-02-26T06:03:20;9.80;59.20
44851;DHT22;30583;48.714;9.386;2024-02-26T06:05:46;9.90;59.00
44851;DHT22;30583;48.714;9.386;2024-02-26T06:08:12;9.90;59.20
44851;DHT22;30583;48.714;9.386;2024-02-26T06:10:39;9.00;60.70
44851;DHT22;30583;48.714;9.386;2024-02-26T06:13:04;9.30;61.10
44851;DHT22;30583;48.714;9.386;2024-02-26T06:15:30;9.50;61.10
44851;DHT22;30583;48.714;9.386;2024-02-26T06:17:56;9.70;61.40
44851;DHT22;30583;48.714;9.386;2024-02-26T06:20:21;9.70;62.80
44851;DHT22;30583;48.714;9.386;2024-02-26T06:22:47;9.90;62.00
44851;DHT22;30583;48.714;9.386;2024-02-26T06:25:12;9.90;63.40
44851;DHT22;30583;48.714;9.386;2024-02-26T06:27:38;10.20;64.30
44851;DHT22;30583;48.714;9.386;2024-02-26T06:30:04;10.40;63.30
44851;DHT22;30583;48.714;9.386;2024-02-26T06:32:30;10.10;64.30
44851;DHT22;30583;48.714;9.386;2024-02-26T06:34:55;10.00;63.90
44851;DHT22;30583;48.714;9.386;2024-02-26T06:37:21;10.00;64.30
44851;DHT22;30583;48.714;9.386;2024-02-26T06:39:47;9.90;63.70
44851;DHT22;30583;48.714;9.386;2024-02-26T06:42:13;9.80;64.00
44851;DHT22;30583;48.714;9.386;2024-02-26T06:44:38;10.00;63.30
44851;DHT22;30583;48.714;9.386;2024-02-26T06:47:04;10.10;63.00
44851;DHT22;30583;48.714;9.386;2024-02-26T06:49:30;10.00;62.00
44851;DHT22;30583;48.714;9.386;2024-02-26T06:51:55;9.60;61.70
44851;DHT22;30583;48.714;9.386;2024-02-26T06:54:21;9.70;61.50
44851;DHT22;30583;48.714;9.386;2024-02-26T06:56:47;9.60;61.70
44851;DHT22;30583;48.714;9.386;2024-02-26T06:59:12;9.40;62.70
44851;DHT22;30583;48.714;9.386;2024-02-26T07:01:41;9.70;61.90
44851;DHT22;30583;48.714;9.386;2024-02-26T07:04:06;9.50;62.50
44851;DHT22;30583;48.714;9.386;2024-02-26T07:06:32;9.70;61.60
44851;DHT22;30583;48.714;9.386;2024-02-26T07:08:57;9.70;61.40
44851;DHT22;30583;48.714;9.386;2024-02-26T07:11:23;9.70;61.20
44851;DHT22;30583;48.714;9.386;2024-02-26T07:13:49;9.50;62.10
44851;DHT22;30583;48.714;9.386;2024-02-26T07:16:15;9.80;61.20
44851;DHT22;30583;48.714;9.386;2024-02-26T07:18:40;9.80;61.00
44851;DHT22;30583;48.714;9.386;2024-02-26T07:21:06;9.70;61.00
44851;DHT22;30583;48.714;9.386;2024-02-26T07:23:32;9.90;61.20
44851;DHT22;30583;48.714;9.386;2024-02-26T07:25:57;9.40;62.00
44851;DHT22;30583;48.714;9.386;2024-02-26T07:28:24;9.30;62.40
44851;DHT22;30583;48.714;9.386;2024-02-26T07:30:50;9.60;61.80
44851;DHT22;30583;48.714;9.386;2024-02-26T07:33:15;9.80;61.30
44851;DHT22;30583;48.714;9.386;2024-02-26T07:35:41;9.80;60.80
44851;DHT22;30583;48.714;9.386;2024-02-26T07:38:07;9.90;60.30
44851;DHT22;30583;48.714;9.386;2024-02-26T07:40:32;9.90;60.30
44851;DHT22;30583;48.714;9.386;2024-02-26T07:42:58;9.90;60.10
44851;DHT22;30583;48.714;9.386;2024-02-26T07:45:23;9.50;61.40
44851;DHT22;30583;48.714;9.386;2024-02-26T07:47:49;9.60;61.40
44851;DHT22;30583;48.714;9.386;2024-02-26T07:50:16;9.60;61.00
44851;DHT22;30583;48.714;9.386;2024-02-26T07:52:42;9.80;59.80
44851;DHT22;30583;48.714;9.386;2024-02-26T07:55:08;9.90;59.80
44851;DHT22;30583;48.714;9.386;2024-02-26T07:57:33;9.70;60.50
44851;DHT22;30583;48.714;9.386;2024-02-26T07:59:59;9.90;60.40
44851;DHT22;30583;48.714;9.386;2024-02-26T08:02:25;10.00;60.40
44851;DHT22;30583;48.714;9.386;2024-02-26T08:04:51;10.10;60.30
44851;DHT22;30583;48.714;9.386;2024-02-26T08:07:16;9.70;61.40
44851;DHT22;30583;48.714;9.386;2024-02-26T08:09:42;9.60;61.70
44851;DHT22;30583;48.714;9.386;2024-02-26T08:12:07;9.90;61.10
44851;DHT22;30583;48.714;9.386;2024-02-26T08:14:33;9.70;62.10
44851;DHT22;30583;48.714;9.386;2024-02-26T08:16:59;10.00;62.10
44851;DHT22;30583;48.714;9.386;2024-02-26T08:19:26;10.00;62.00
44851;DHT22;30583;48.714;9.386;2024-02-26T08:22:02;9.70;62.50
44851;DHT22;30583;48.714;9.386;2024-02-26T08:24:30;10.10;62.10
44851;DHT22;30583;48.714;9.386;2024-02-26T08:26:56;10.20;61.50
44851;DHT22;30583;48.714;9.386;2024-02-26T08:29:21;10.20;61.70
44851;DHT22;30583;48.714;9.386;2024-02-26T08:31:47;10.10;61.60
44851;DHT22;30583;48.714;9.386;2024-02-26T08:34:13;9.80;63.40
44851;DHT22;30583;48.714;9.386;2024-02-26T08:36:39;9.70;64.40
44851;DHT22;30583;48.714;9.386;2024-02-26T08:39:04;10.10;63.40
44851;DHT22;30583;48.714;9.386;2024-02-26T08:41:30;10.20;63.40
44851;DHT22;30583;48.714;9.386;2024-02-26T08:43:55;10.40;62.30
44851;DHT22;30583;48.714;9.386;2024-02-26T08:46:21;10.40;62.00
44851;DHT22;30583;48.714;9.386;2024-02-26T08:48:47;10.40;61.60
44851;DHT22;30583;48.714;9.386;2024-02-26T08:51:13;10.40;60.30
44851;DHT22;30583;48.714;9.386;2024-02-26T08:53:38;10.00;61.20
44851;DHT22;30583;48.714;9.386;2024-02-26T08:56:04;10.30;61.60
44851;DHT22;30583;48.714;9.386;2024-02-26T08:58:30;10.30;61.20
44851;DHT22;30583;48.714;9.386;2024-02-26T09:00:56;9.40;63.50
44851;DHT22;30583;48.714;9.386;2024-02-26T09:03:22;9.80;63.30
44851;DHT22;30583;48.714;9.386;2024-02-26T09:05:48;10.30;61.40
44851;DHT22;30583;48.714;9.386;2024-02-26T09:08:14;9.60;62.50
44851;DHT22;30583;48.714;9.386;2024-02-26T09:10:39;9.70;62.70
44851;DHT22;30583;48.714;9.386;2024-02-26T09:13:05;10.00;61.30
44851;DHT22;30583;48.714;9.386;2024-02-26T09:15:31;9.60;62.10
44851;DHT22;30583;48.714;9.386;2024-02-26T09:17:57;9.60;62.40
44851;DHT22;30583;48.714;9.386;2024-02-26T09:20:23;9.50;62.40
44851;DHT22;30583;48.714;9.386;2024-02-26T09:22:49;9.90;62.00
44851;DHT22;30583;48.714;9.386;2024-02-26T09:25:19;9.70;61.60
44851;DHT22;30583;48.714;9.386;2024-02-26T09:27:44;9.40;62.40
44851;DHT22;30583;48.714;9.386;2024-02-26T09:30:11;9.50;62.00
44851;DHT22;30583;48.714;9.386;2024-02-26T09:32:38;9.50;61.60
44851;DHT22;30583;48.714;9.386;2024-02-26T09:35:03;9.40;62.30
44851;DHT22;30583;48.714;9.386;2024-02-26T09:37:29;9.70;61.30
44851;DHT22;30583;48.714;9.386;2024-02-26T09:39:55;9.60;61.50
44851;DHT22;30583;48.714;9.386;2024-02-26T09:42:21;9.60;61.70
44851;DHT22;30583;48.714;9.386;2024-02-26T09:44:51;9.50;61.70
44851;DHT22;30583;48.714;9.386;2024-02-26T09:47:19;9.60;61.70
44851;DHT22;30583;48.714;9.386;2024-02-26T09:49:47;9.60;62.10
44851;DHT22;30583;48.714;9.386;2024-02-26T09:52:15;9.70;62.60
44851;DHT22;30583;48.714;9.386;2024-02-26T09:54:41;9.50;64.00
44851;DHT22;30583;48.714;9.386;2024-02-26T09:57:09;9.40;64.60
44851;DHT22;30583;48.714;9.386;2024-02-26T09:59:41;9.40;64.60
44851;DHT22;30583;48.714;9.386;2024-02-26T10:02:14;9.50;65.20
44851;DHT22;30583;48.714;9.386;2024-02-26T10:04:41;9.80;64.30
44851;DHT22;30583;48.714;9.386;2024-02-26T10:07:11;9.80;64.90
44851;DHT22;30583;48.714;9.386;2024-02-26T10:09:37;9.90;63.70
44851;DHT22;30583;48.714;9.386;2024-02-26T10:12:04;10.00;63.90
44851;DHT22;30583;48.714;9.386;2024-02-26T10:14:30;10.10;63.80
44851;DHT22;30583;48.714;9.386;2024-02-26T10:16:56;10.30;63.00
44851;DHT22;30583;48.714;9.386;2024-02-26T10:19:29;10.40;62.50
44851;DHT22;30583;48.714;9.386;2024-02-26T10:22:00;10.60;61.80
44851;DHT22;30583;48.714;9.386;2024-02-26T10:24:26;11.20;61.00
44851;DHT22;30583;48.714;9.386;2024-02-26T10:26:54;11.20;59.80
44851;DHT22;30583;48.714;9.386;2024-02-26T10:29:20;11.40;59.10
44851;DHT22;30583;48.714;9.386;2024-02-26T10:31:46;11.50;58.20
44851;DHT22;30583;48.714;9.386;2024-02-26T10:34:12;12.00;58.70
44851;DHT22;30583;48.714;9.386;2024-02-26T10:36:38;12.20;57.30
44851;DHT22;30583;48.714;9.386;2024-02-26T10:39:06;12.40;56.50
44851;DHT22;30583;48.714;9.386;2024-02-26T10:41:35;11.90;54.90
44851;DHT22;30583;48.714;9.386;2024-02-26T10:44:01;12.10;56.10
44851;DHT22;30583;48.714;9.386;2024-02-26T10:46:27;12.40;55.60
44851;DHT22;30583;48.714;9.386;2024-02-26T10:48:53;12.70;54.70
44851;DHT22;30583;48.714;9.386;2024-02-26T10:51:29;12.30;54.10
44851;DHT22;30583;48.714;9.386;2024-02-26T10:53:57;12.10;54.10
44851;DHT22;30583;48.714;9.386;2024-02-26T10:56:25;12.10;54.30
44851;DHT22;30583;48.714;9.386;2024-02-26T10:58:53;12.30;54.40
44851;DHT22;30583;48.714;9.386;2024-02-26T11:01:19;12.10;53.60
44851;DHT22;30583;48.714;9.386;2024-02-26T11:03:48;11.80;53.50
44851;DHT22;30583;48.714;9.386;2024-02-26T11:06:15;11.90;54.30
44851;DHT22;30583;48.714;9.386;2024-02-26T11:08:41;12.00;53.80
44851;DHT22;30583;48.714;9.386;2024-02-26T11:11:07;12.30;53.20
44851;DHT22;30583;48.714;9.386;2024-02-26T11:13:33;12.60;52.70
44851;DHT22;30583;48.714;9.386;2024-02-26T11:16:04;12.40;52.30
44851;DHT22;30583;48.714;9.386;2024-02-26T11:18:31;12.50;52.70
44851;DHT22;30583;48.714;9.386;2024-02-26T11:20:59;12.60;52.30
44851;DHT22;30583;48.714;9.386;2024-02-26T11:23:24;12.80;52.10
44851;DHT22;30583;48.714;9.386;2024-02-26T11:25:53;13.20;51.40
44851;DHT22;30583;48.714;9.386;2024-02-26T11:28:21;13.10;51.00
44851;DHT22;30583;48.714;9.386;2024-02-26T11:30:49;12.90;51.30
44851;DHT22;30583;48.714;9.386;2024-02-26T11:33:15;13.10;51.70
44851;DHT22;30583;48.714;9.386;2024-02-26T11:35:41;13.30;51.50
44851;DHT22;30583;48.714;9.386;2024-02-26T11:38:07;13.50;50.70
44851;DHT22;30583;48.714;9.386;2024-02-26T11:40:37;13.60;50.80
44851;DHT22;30583;48.714;9.386;2024-02-26T11:43:05;13.40;50.80
44851;DHT22;30583;48.714;9.386;2024-02-26T11:48:16;13.60;49.40
44851;DHT22;30583;48.714;9.386;2024-02-26T11:50:49;13.40;48.50
44851;DHT22;30583;48.714;9.386;2024-02-26T11:53:25;13.70;48.20
44851;DHT22;30583;48.714;9.386;2024-02-26T11:58:40;14.00;47.60
44851;DHT22;30583;48.714;9.386;2024-02-26T12:01:06;13.90;47.20
44851;DHT22;30583;48.714;9.386;2024-02-26T12:03:52;13.70;49.60
44851;DHT22;30583;48.714;9.386;2024-02-26T12:06:19;13.80;49.80
44851;DHT22;30583;48.714;9.386;2024-02-26T12:08:45;13.90;49.10
44851;DHT22;30583;48.714;9.386;2024-02-26T12:11:17;14.00;48.80
44851;DHT22;30583;48.714;9.386;2024-02-26T12:13:47;14.20;49.00
44851;DHT22;30583;48.714;9.386;2024-02-26T12:16:35;14.50;48.70
44851;DHT22;30583;48.714;9.386;2024-02-26T12:19:05;14.60;48.20
44851;DHT22;30583;48.714;9.386;2024-02-26T12:21:34;14.70;47.90
44851;DHT22;30583;48.714;9.386;2024-02-26T12:24:13;15.00;47.50
44851;DHT22;30583;48.714;9.386;2024-02-26T12:26:40;15.20;47.10
44851;DHT22;30583;48.714;9.386;2024-02-26T12:29:06;14.90;46.80
44851;DHT22;30583;48.714;9.386;2024-02-26T12:31:35;14.70;45.80
44851;DHT22;30583;48.714;9.386;2024-02-26T12:34:03;14.70;46.60
44851;DHT22;30583;48.714;9.386;2024-02-26T12:36:29;14.40;47.40
44851;DHT22;30583;48.714;9.386;2024-02-26T12:38:55;14.00;47.00
44851;DHT22;30583;48.714;9.386;2024-02-26T12:41:22;13.70;46.90
44851;DHT22;30583;48.714;9.386;2024-02-26T12:43:48;13.70;47.10
44851;DHT22;30583;48.714;9.386;2024-02-26T12:46:14;13.60;47.40
44851;DHT22;30583;48.714;9.386;2024-02-26T12:48:43;13.70;46.80
44851;DHT22;30583;48.714;9.386;2024-02-26T12:51:11;13.80;47.00
44851;DHT22;30583;48.714;9.386;2024-02-26T12:53:38;14.00;47.90
44851;DHT22;30583;48.714;9.386;2024-02-26T12:56:06;14.00;47.40
44851;DHT22;30583;48.714;9.386;2024-02-26T12:58:33;14.20;45.20
44851;DHT22;30583;48.714;9.386;2024-02-26T13:01:00;14.70;45.00
44851;DHT22;30583;48.714;9.386;2024-02-26T13:03:26;14.90;44.60
44851;DHT22;30583;48.714;9.386;2024-02-26T13:05:53;15.00;44.00
44851;DHT22;30583;48.714;9.386;2024-02-26T13:08:22;15.00;43.80
44851;DHT22;30583;48.714;9.386;2024-02-26T13:10:48;14.70;44.30
44851;DHT22;30583;48.714;9.386;2024-02-26T13:13:17;14.50;44.30
44851;DHT22;30583;48.714;9.386;2024-02-26T13:15:44;14.40;45.20
44851;DHT22;30583;48.714;9.386;2024-02-26T13:18:10;14.30;45.10
44851;DHT22;30583;48.714;9.386;2024-02-26T13:20:36;14.20;45.40
44851;DHT22;30583;48.714;9.386;2024-02-26T13:23:06;14.20;45.60
44851;DHT22;30583;48.714;9.386;2024-02-26T13:25:33;14.20;46.50
44851;DHT22;30583;48.714;9.386;2024-02-26T13:28:09;14.20;46.20
44851;DHT22;30583;48.714;9.386;2024-02-26T13:30:37;14.10;46.20
44851;DHT22;30583;48.714;9.386;2024-02-26T13:33:11;14.10;46.30
44851;DHT22;30583;48.714;9.386;2024-02-26T13:35:38;14.00;46.60
44851;DHT22;30583;48.714;9.386;2024-02-26T13:38:05;14.10;47.40
44851;DHT22;30583;48.714;9.386;2024-02-26T13:40:31;14.00;47.60
44851;DHT22;30583;48.714;9.386;2024-02-26T13:42:57;14.00;47.60
44851;DHT22;30583;48.714;9.386;2024-02-26T13:45:22;14.00;48.10
44851;DHT22;30583;48.714;9.386;2024-02-26T13:47:48;14.00;48.40
44851;DHT22;30583;48.714;9.386;2024-02-26T13:50:13;13.90;48.60
44851;DHT22;30583;48.714;9.386;2024-02-26T13:52:39;13.90;48.10
44851;DHT22;30583;48.714;9.386;2024-02-26T13:55:05;14.00;48.30
44851;DHT22;30583;48.714;9.386;2024-02-26T13:57:31;14.00;48.50
44851;DHT22;30583;48.714;9.386;2024-02-26T13:59:56;14.20;47.60
44851;DHT22;30583;48.714;9.386;2024-02-26T14:02:22;14.00;47.60
44851;DHT22;30583;48.714;9.386;2024-02-26T14:04:48;14.00;48.20
44851;DHT22;30583;48.714;9.386;2024-02-26T14:07:13;14.10;48.20
44851;DHT22;30583;48.714;9.386;2024-02-26T14:09:39;14.20;47.70
44851;DHT22;30583;48.714;9.386;2024-02-26T14:12:05;14.70;47.70
44851;DHT22;30583;48.714;9.386;2024-02-26T14:14:30;14.50;46.40
44851;DHT22;30583;48.714;9.386;2024-02-26T14:17:00;14.40;47.10
44851;DHT22;30583;48.714;9.386;2024-02-26T14:19:26;14.70;46.20
44851;DHT22;30583;48.714;9.386;2024-02-26T14:21:52;14.80;46.40
44851;DHT22;30583;48.714;9.386;2024-02-26T14:24:17;15.10;45.00
44851;DHT22;30583;48.714;9.386;2024-02-26T14:26:43;15.10;45.30
44851;DHT22;30583;48.714;9.386;2024-02-26T14:29:08;15.00;45.20
44851;DHT22;30583;48.714;9.386;2024-02-26T14:31:34;15.10;45.30
44851;DHT22;30583;48.714;9.386;2024-02-26T14:34:00;15.90;43.70
44851;DHT22;30583;48.714;9.386;2024-02-26T14:36:25;15.90;43.60
44851;DHT22;30583;48.714;9.386;2024-02-26T14:38:51;16.50;43.20
44851;DHT22;30583;48.714;9.386;2024-02-26T14:41:17;16.90;41.20
44851;DHT22;30583;48.714;9.386;2024-02-26T14:43:42;16.40;42.50
44851;DHT22;30583;48.714;9.386;2024-02-26T14:46:08;16.50;42.60
44851;DHT22;30583;48.714;9.386;2024-02-26T14:48:33;15.70;43.10
44851;DHT22;30583;48.714;9.386;2024-02-26T14:51:00;15.30;44.40
44851;DHT22;30583;48.714;9.386;2024-02-26T14:53:26;15.50;44.30
44851;DHT22;30583;48.714;9.386;2024-02-26T14:55:51;15.30;44.80
44851;DHT22;30583;48.714;9.386;2024-02-26T14:58:17;15.50;44.60
44851;DHT22;30583;48.714;9.386;2024-02-26T15:00:43;15.30;44.40
44851;DHT22;30583;48.714;9.386;2024-02-26T15:03:08;15.40;44.20
44851;DHT22;30583;48.714;9.386;2024-02-26T15:05:34;15.40;44.50
44851;DHT22;30583;48.714;9.386;2024-02-26T15:08:00;15.00;45.40
44851;DHT22;30583;48.714;9.386;2024-02-26T15:10:26;14.80;45.40
44851;DHT22;30583;48.714;9.386;2024-02-26T15:12:52;14.80;45.70
44851;DHT22;30583;48.714;9.386;2024-02-26T15:15:23;14.90;45.90
44851;DHT22;30583;48.714;9.386;2024-02-26T15:17:49;14.60;47.30
44851;DHT22;30583;48.714;9.386;2024-02-26T15:20:15;14.50;47.40
44851;DHT22;30583;48.714;9.386;2024-02-26T15:22:41;14.50;48.40
44851;DHT22;30583;48.714;9.386;2024-02-26T15:25:07;14.40;47.60
44851;DHT22;30583;48.714;9.386;2024-02-26T15:27:33;14.20;48.40
44851;DHT22;30583;48.714;9.386;2024-02-26T15:29:59;14.20;48.80
44851;DHT22;30583;48.714;9.386;2024-02-26T15:32:26;14.20;49.10
44851;DHT22;30583;48.714;9.386;2024-02-26T15:34:55;14.40;49.10
44851;DHT22;30583;48.714;9.386;2024-02-26T15:37:21;14.60;48.60
44851;DHT22;30583;48.714;9.386;2024-02-26T15:39:47;14.10;49.70